Time;durP1;ratioP1;P1;durP2;ratioP2;P2;SDS_P1;SDS_P2;PMS_P1;PMS_P2;Temp;Humidity;BMP_temperature;BMP_pressure;BME280_temperature;BME280_humidity;BME280_pressure;Samples;Min_cycle;Max_cycle;Signal;HPM_P1;HPM_P2
2021/01/31 00:01:21;;;;;;;8.10;6.37;;;1.00;99.90;;;;;;477784;249;27567;-72
2021/01/31 00:03:23;;;;;;;6.85;5.85;;;1.10;99.90;;;;;;477813;249;27575;-70
2021/01/31 00:05:24;;;;;;;8.88;7.00;;;1.10;99.90;;;;;;477863;249;27575;-69
2021/01/31 00:07:25;;;;;;;6.70;6.00;;;1.10;99.90;;;;;;477880;249;27540;-70
2021/01/31 00:09:26;;;;;;;6.80;6.05;;;1.00;99.90;;;;;;477877;243;27458;-71
2021/01/31 00:11:28;;;;;;;6.72;5.80;;;1.00;99.90;;;;;;478090;243;27621;-70
2021/01/31 00:13:29;;;;;;;7.28;6.15;;;1.10;99.90;;;;;;478861;248;27596;-70
2021/01/31 00:15:30;;;;;;;7.57;6.10;;;1.10;99.90;;;;;;479175;247;27537;-71
2021/01/31 00:17:31;;;;;;;7.15;6.28;;;1.20;99.90;;;;;;470463;252;27573;-70
2021/01/31 00:19:33;;;;;;;7.07;6.37;;;1.10;99.90;;;;;;479846;246;27902;-73
2021/01/31 00:21:34;;;;;;;8.52;7.12;;;1.10;99.90;;;;;;479907;248;27964;-70
2021/01/31 00:23:35;;;;;;;8.00;6.72;;;1.10;99.90;;;;;;479944;245;28026;-70
2021/01/31 00:25:36;;;;;;;9.05;7.25;;;1.10;99.90;;;;;;470564;252;27975;-69
2021/01/31 00:27:38;;;;;;;8.88;7.40;;;1.10;99.90;;;;;;479924;246;27416;-69
2021/01/31 00:29:39;;;;;;;9.10;6.70;;;1.10;99.90;;;;;;479871;248;27432;-71
2021/01/31 00:31:40;;;;;;;11.55;8.00;;;1.20;99.90;;;;;;470499;249;27497;-69
2021/01/31 00:33:41;;;;;;;11.57;7.87;;;1.20;99.90;;;;;;479437;247;27553;-69
2021/01/31 00:35:43;;;;;;;10.98;8.50;;;1.20;99.90;;;;;;470521;252;27451;-69
2021/01/31 00:37:44;;;;;;;10.20;7.80;;;1.10;99.90;;;;;;479813;247;27508;-70
2021/01/31 00:39:45;;;;;;;14.35;8.70;;;1.10;99.90;;;;;;479791;248;27444;-71
2021/01/31 00:41:46;;;;;;;11.55;8.73;;;1.10;99.90;;;;;;479731;248;27385;-69
2021/01/31 00:43:48;;;;;;;14.32;10.25;;;1.10;99.90;;;;;;470394;249;27927;-70
2021/01/31 00:45:50;;;;;;;12.75;9.02;;;1.10;99.90;;;;;;479300;247;28223;-71
2021/01/31 00:47:50;;;;;;;9.63;7.20;;;1.20;99.90;;;;;;470352;253;27445;-70
2021/01/31 00:49:51;;;;;;;11.75;8.20;;;1.10;99.90;;;;;;479319;247;27544;-70
2021/01/31 00:51:53;;;;;;;12.27;9.00;;;1.10;99.90;;;;;;470476;252;27423;-69
2021/01/31 00:53:54;;;;;;;15.60;10.55;;;1.10;99.90;;;;;;470482;252;27659;-70
2021/01/31 00:55:55;;;;;;;11.12;8.35;;;1.10;99.90;;;;;;479738;246;27539;-70
2021/01/31 00:57:56;;;;;;;13.52;9.05;;;1.10;99.90;;;;;;479763;248;27515;-69
2021/01/31 00:59:58;;;;;;;10.80;8.90;;;1.20;99.90;;;;;;480027;245;27399;-69
2021/01/31 01:01:59;;;;;;;11.73;8.82;;;1.30;99.90;;;;;;470797;252;27439;-69
2021/01/31 01:04:00;;;;;;;10.45;8.32;;;1.40;99.90;;;;;;480102;246;27948;-70
2021/01/31 01:06:01;;;;;;;8.95;7.70;;;1.40;99.90;;;;;;480093;248;27959;-70
2021/01/31 01:08:03;;;;;;;11.15;8.80;;;1.40;99.90;;;;;;470711;249;27874;-70
2021/01/31 01:10:04;;;;;;;13.50;9.05;;;1.40;99.90;;;;;;479599;247;27500;-70
2021/01/31 01:12:05;;;;;;;15.15;10.60;;;1.40;99.90;;;;;;470507;252;27466;-71
2021/01/31 01:14:06;;;;;;;14.05;9.95;;;1.40;99.90;;;;;;479792;246;27398;-69
2021/01/31 01:16:08;;;;;;;10.50;8.50;;;1.30;99.90;;;;;;479741;248;27444;-69
2021/01/31 01:18:09;;;;;;;12.48;9.10;;;1.30;99.90;;;;;;479766;245;27485;-69
2021/01/31 01:20:10;;;;;;;14.48;10.23;;;1.30;99.90;;;;;;470466;248;27841;-69
2021/01/31 01:22:11;;;;;;;12.23;8.95;;;1.20;99.90;;;;;;479782;246;27900;-69
2021/01/31 01:24:13;;;;;;;12.37;9.50;;;1.20;99.90;;;;;;479798;248;27996;-69
2021/01/31 01:26:14;;;;;;;12.45;8.85;;;1.20;99.90;;;;;;479018;245;27983;-69
2021/01/31 01:28:15;;;;;;;13.15;9.93;;;1.20;99.90;;;;;;479411;247;27530;-72
2021/01/31 01:30:16;;;;;;;15.25;10.38;;;1.20;99.90;;;;;;470389;253;27525;-69
2021/01/31 01:32:18;;;;;;;11.35;9.27;;;1.20;99.90;;;;;;470379;253;27484;-69
2021/01/31 01:34:19;;;;;;;13.45;9.95;;;1.20;99.90;;;;;;478873;248;27514;-69
2021/01/31 01:36:20;;;;;;;14.60;10.25;;;1.20;99.90;;;;;;478839;248;27470;-71
2021/01/31 01:38:21;;;;;;;14.65;11.05;;;1.20;99.90;;;;;;478774;248;27467;-70
2021/01/31 01:40:23;;;;;;;18.75;12.23;;;1.10;99.90;;;;;;478810;248;27993;-69
2021/01/31 01:42:24;;;;;;;17.87;12.15;;;1.00;99.90;;;;;;478804;243;28003;-70
2021/01/31 01:44:25;;;;;;;17.65;11.60;;;1.00;99.90;;;;;;478743;248;28628;-69
2021/01/31 01:46:27;;;;;;;19.25;12.07;;;1.10;99.90;;;;;;478789;248;27454;-69
2021/01/31 01:48:28;;;;;;;17.20;12.60;;;0.90;99.90;;;;;;478821;244;27451;-70
2021/01/31 01:50:29;;;;;;;20.02;13.25;;;0.90;99.90;;;;;;478793;248;27892;-69
2021/01/31 01:52:33;;;;;;;22.13;13.15;;;0.90;99.90;;;;;;478854;248;27473;-70
2021/01/31 01:54:32;;;;;;;19.15;13.15;;;0.90;99.90;;;;;;478650;248;27560;-71
2021/01/31 01:56:33;;;;;;;21.23;14.15;;;0.90;99.90;;;;;;478842;248;28037;-69
2021/01/31 01:58:34;;;;;;;21.20;13.48;;;0.90;99.90;;;;;;478802;248;27937;-70
2021/01/31 02:00:35;;;;;;;22.55;13.62;;;0.90;99.90;;;;;;478776;243;27446;-69
2021/01/31 02:02:37;;;;;;;20.58;13.07;;;0.80;99.90;;;;;;478741;248;27572;-70
2021/01/31 02:04:38;;;;;;;21.95;13.02;;;0.80;99.90;;;;;;478804;248;27485;-69
2021/01/31 02:06:39;;;;;;;27.25;14.73;;;0.80;99.90;;;;;;478852;248;27643;-69
2021/01/31 02:08:40;;;;;;;21.73;14.13;;;0.80;99.90;;;;;;478789;248;27545;-69
2021/01/31 02:10:42;;;;;;;25.33;14.32;;;0.80;99.90;;;;;;478711;248;27466;-71
2021/01/31 02:12:43;;;;;;;20.65;13.65;;;0.90;99.90;;;;;;478760;248;28078;-70
2021/01/31 02:14:47;;;;;;;25.02;15.25;;;0.90;99.90;;;;;;478755;248;27910;-69
2021/01/31 02:16:48;;;;;;;22.87;13.82;;;0.90;99.90;;;;;;478754;248;27517;-69
2021/01/31 02:18:49;;;;;;;25.23;15.10;;;0.90;99.90;;;;;;478766;248;27446;-70
2021/01/31 02:20:51;;;;;;;20.67;14.10;;;0.90;99.90;;;;;;478752;243;27491;-69
2021/01/31 02:22:52;;;;;;;19.45;12.95;;;0.90;99.90;;;;;;478799;248;27880;-70
2021/01/31 02:24:53;;;;;;;28.25;13.93;;;1.00;99.90;;;;;;478827;248;27497;-69
2021/01/31 02:26:54;;;;;;;21.15;13.82;;;1.00;99.90;;;;;;478781;248;27462;-69
2021/01/31 02:28:56;;;;;;;23.08;15.05;;;0.90;99.90;;;;;;478737;248;28074;-70
2021/01/31 02:30:57;;;;;;;23.50;14.40;;;0.90;99.90;;;;;;478712;248;27982;-69
2021/01/31 02:32:58;;;;;;;21.12;14.48;;;0.80;99.90;;;;;;478843;248;27464;-71
2021/01/31 02:34:59;;;;;;;20.20;13.62;;;0.90;99.90;;;;;;478880;248;27470;-69
2021/01/31 02:37:01;;;;;;;24.37;13.45;;;1.00;99.90;;;;;;478899;248;27472;-69
2021/01/31 02:39:02;;;;;;;24.27;14.65;;;0.90;99.90;;;;;;478948;248;27521;-69
2021/01/31 02:41:03;;;;;;;20.95;13.50;;;0.80;99.90;;;;;;479879;243;27521;-69
2021/01/31 02:43:04;;;;;;;21.75;14.50;;;0.80;99.90;;;;;;478817;248;27482;-70
2021/01/31 02:45:06;;;;;;;30.15;15.05;;;0.80;99.90;;;;;;478834;248;27939;-68
2021/01/31 02:47:07;;;;;;;22.65;14.50;;;0.80;99.90;;;;;;478889;248;28043;-69
2021/01/31 02:49:08;;;;;;;19.77;13.68;;;0.80;99.90;;;;;;478838;248;27568;-71
2021/01/31 02:51:09;;;;;;;23.23;14.57;;;0.80;99.90;;;;;;478713;248;27454;-69
2021/01/31 02:53:11;;;;;;;20.15;13.40;;;0.70;99.90;;;;;;478776;244;27805;-70
2021/01/31 02:55:12;;;;;;;21.48;13.82;;;0.90;99.90;;;;;;478816;248;27496;-69
2021/01/31 02:57:13;;;;;;;21.17;14.10;;;0.90;99.90;;;;;;478744;248;27549;-69
2021/01/31 02:59:14;;;;;;;18.20;12.93;;;0.80;99.90;;;;;;478731;248;27938;-70
2021/01/31 03:01:16;;;;;;;22.33;13.62;;;0.80;99.90;;;;;;478643;248;27950;-68
2021/01/31 03:03:17;;;;;;;20.58;14.00;;;0.70;99.90;;;;;;478841;248;28106;-70
2021/01/31 03:05:18;;;;;;;21.42;14.23;;;0.70;99.90;;;;;;478842;243;27456;-70
2021/01/31 03:07:19;;;;;;;21.05;14.15;;;0.80;99.90;;;;;;478818;248;27461;-69
2021/01/31 03:09:21;;;;;;;23.55;15.02;;;0.80;99.90;;;;;;478756;248;27545;-69
2021/01/31 03:11:22;;;;;;;20.27;13.20;;;0.80;99.90;;;;;;478682;243;27530;-69
2021/01/31 03:13:23;;;;;;;22.90;14.52;;;0.80;99.90;;;;;;478749;248;27466;-71
2021/01/31 03:15:24;;;;;;;19.35;14.23;;;0.90;99.90;;;;;;478697;248;28046;-70
2021/01/31 03:17:26;;;;;;;22.67;14.20;;;0.90;99.90;;;;;;478593;248;28012;-69
2021/01/31 03:19:27;;;;;;;20.70;13.02;;;0.90;99.90;;;;;;478825;248;27465;-69
2021/01/31 03:21:28;;;;;;;17.52;12.52;;;0.90;99.90;;;;;;478772;248;27449;-70
2021/01/31 03:23:29;;;;;;;17.37;12.15;;;0.80;99.90;;;;;;478846;248;27451;-69
2021/01/31 03:25:31;;;;;;;17.33;12.48;;;0.70;99.90;;;;;;478794;248;27509;-70
2021/01/31 03:27:32;;;;;;;19.05;12.10;;;0.70;99.90;;;;;;478820;248;27481;-70
2021/01/31 03:29:33;;;;;;;18.83;13.10;;;0.60;99.90;;;;;;478833;243;27457;-69
2021/01/31 03:31:34;;;;;;;18.77;12.75;;;0.70;99.90;;;;;;478743;248;27917;-70
2021/01/31 03:33:36;;;;;;;23.17;12.90;;;0.70;99.90;;;;;;478794;248;28014;-68
2021/01/31 03:35:37;;;;;;;18.00;12.27;;;0.70;99.90;;;;;;478805;248;27541;-69
2021/01/31 03:37:38;;;;;;;18.27;12.90;;;0.60;99.90;;;;;;478837;248;27679;-70
2021/01/31 03:39:40;;;;;;;19.50;13.30;;;0.60;99.90;;;;;;478861;248;27528;-69
2021/01/31 03:41:41;;;;;;;17.40;12.15;;;0.60;99.90;;;;;;478826;248;27680;-70
2021/01/31 03:43:42;;;;;;;18.58;13.18;;;0.70;99.90;;;;;;478894;248;27492;-69
2021/01/31 03:45:43;;;;;;;20.98;13.35;;;0.70;99.90;;;;;;478859;248;27470;-69
2021/01/31 03:47:45;;;;;;;19.02;13.30;;;0.80;99.90;;;;;;478876;248;28002;-71
2021/01/31 03:49:46;;;;;;;18.00;12.32;;;0.90;99.90;;;;;;478897;248;27858;-69
2021/01/31 03:51:47;;;;;;;17.52;12.43;;;0.90;99.90;;;;;;478833;248;27449;-70
2021/01/31 03:53:48;;;;;;;16.95;11.85;;;0.80;99.90;;;;;;478912;248;27466;-69
2021/01/31 03:55:50;;;;;;;18.30;12.90;;;0.90;99.90;;;;;;478888;248;27537;-69
2021/01/31 03:57:51;;;;;;;18.08;13.10;;;0.90;99.90;;;;;;478955;248;27542;-71
2021/01/31 03:59:52;;;;;;;20.42;13.13;;;0.90;99.90;;;;;;478929;248;27424;-69
2021/01/31 04:01:53;;;;;;;18.60;13.27;;;0.80;99.90;;;;;;478943;243;27887;-69
2021/01/31 04:03:55;;;;;;;23.08;14.15;;;0.90;99.90;;;;;;479042;248;27862;-68
2021/01/31 04:05:56;;;;;;;20.10;12.75;;;0.90;99.90;;;;;;478996;248;27489;-69
2021/01/31 04:07:57;;;;;;;18.20;12.55;;;0.80;99.90;;;;;;478906;248;27455;-71
2021/01/31 04:09:58;;;;;;;19.83;13.00;;;0.70;99.90;;;;;;478872;248;27411;-72
2021/01/31 04:12:00;;;;;;;16.62;11.82;;;0.80;99.90;;;;;;478768;248;27595;-69
2021/01/31 04:14:01;;;;;;;17.58;11.90;;;0.90;99.90;;;;;;478833;244;27451;-71
2021/01/31 04:16:02;;;;;;;19.52;13.65;;;0.90;99.90;;;;;;478883;248;27457;-69
2021/01/31 04:18:04;;;;;;;20.42;13.75;;;1.00;99.90;;;;;;478876;248;27954;-70
2021/01/31 04:20:05;;;;;;;18.98;12.60;;;1.00;99.90;;;;;;478805;248;27886;-69
2021/01/31 04:22:06;;;;;;;19.42;12.70;;;0.90;99.90;;;;;;478818;248;27468;-69
2021/01/31 04:24:07;;;;;;;15.65;11.15;;;0.90;99.90;;;;;;478812;248;27516;-70
2021/01/31 04:26:08;;;;;;;18.23;13.02;;;0.90;99.90;;;;;;478781;243;27454;-70
2021/01/31 04:28:10;;;;;;;20.58;13.25;;;0.90;99.90;;;;;;478834;248;27818;-72
2021/01/31 04:30:11;;;;;;;17.92;12.60;;;0.90;99.90;;;;;;478705;248;27457;-68
2021/01/31 04:32:13;;;;;;;17.80;12.63;;;0.90;99.90;;;;;;478740;248;28028;-70
2021/01/31 04:34:13;;;;;;;19.55;13.10;;;0.80;99.90;;;;;;478620;248;28017;-69
2021/01/31 04:36:15;;;;;;;21.42;13.43;;;0.80;99.90;;;;;;478736;248;27474;-69
2021/01/31 04:38:16;;;;;;;19.60;13.95;;;0.80;99.90;;;;;;478737;248;27470;-69
2021/01/31 04:40:18;;;;;;;18.62;13.10;;;0.90;99.90;;;;;;478694;248;27526;-71
2021/01/31 04:42:18;;;;;;;23.10;14.45;;;0.80;99.90;;;;;;478832;248;27798;-70
2021/01/31 04:44:20;;;;;;;19.42;13.02;;;0.80;99.90;;;;;;478806;248;27546;-69
2021/01/31 04:46:21;;;;;;;18.70;12.93;;;0.90;99.90;;;;;;478824;243;27921;-69
2021/01/31 04:48:22;;;;;;;19.83;13.25;;;1.00;99.90;;;;;;478790;248;27889;-69
2021/01/31 04:50:24;;;;;;;20.98;13.93;;;1.10;99.90;;;;;;478752;248;27949;-70
2021/01/31 04:52:25;;;;;;;18.40;12.98;;;1.10;99.90;;;;;;478822;248;27517;-70
2021/01/31 04:54:26;;;;;;;22.60;15.05;;;1.00;99.90;;;;;;478793;248;27560;-69
2021/01/31 04:56:27;;;;;;;20.25;14.10;;;0.90;99.90;;;;;;478735;248;27539;-69
2021/01/31 04:58:29;;;;;;;19.85;13.40;;;0.90;99.90;;;;;;478788;248;27422;-68
2021/01/31 05:00:30;;;;;;;22.42;14.20;;;0.80;99.90;;;;;;478726;248;27459;-69
2021/01/31 05:02:31;;;;;;;20.27;14.25;;;0.80;99.90;;;;;;478752;244;27923;-71
2021/01/31 05:04:32;;;;;;;20.27;14.40;;;0.80;99.90;;;;;;478712;243;28023;-69
2021/01/31 05:06:34;;;;;;;23.10;15.15;;;0.80;99.90;;;;;;478734;243;27591;-70
2021/01/31 05:08:35;;;;;;;19.95;14.05;;;0.80;99.90;;;;;;478670;248;27422;-68
2021/01/31 05:10:36;;;;;;;21.58;14.10;;;0.90;99.90;;;;;;478735;248;27489;-69
2021/01/31 05:12:37;;;;;;;22.87;14.65;;;0.70;99.90;;;;;;478772;244;27881;-70
2021/01/31 05:14:39;;;;;;;25.20;15.20;;;0.80;99.90;;;;;;478743;248;27464;-68
2021/01/31 05:16:40;;;;;;;22.48;14.27;;;0.80;99.90;;;;;;478722;248;27527;-70
2021/01/31 05:18:41;;;;;;;22.58;15.18;;;0.80;99.90;;;;;;478884;248;28021;-68
2021/01/31 05:20:42;;;;;;;23.27;14.85;;;0.80;99.90;;;;;;478840;248;27969;-69
2021/01/31 05:22:44;;;;;;;23.70;15.63;;;0.80;99.90;;;;;;478947;243;27437;-68
2021/01/31 05:24:45;;;;;;;25.45;15.38;;;0.80;99.90;;;;;;478887;244;27509;-69
2021/01/31 05:26:46;;;;;;;23.92;15.77;;;0.60;99.90;;;;;;478994;243;27513;-70
2021/01/31 05:28:47;;;;;;;21.85;14.00;;;0.60;99.90;;;;;;478933;248;27422;-68
2021/01/31 05:30:49;;;;;;;23.90;16.02;;;0.70;99.90;;;;;;478771;248;27466;-69
2021/01/31 05:32:50;;;;;;;26.85;16.95;;;0.70;99.90;;;;;;478711;248;27458;-71
2021/01/31 05:34:51;;;;;;;26.35;17.45;;;0.60;99.90;;;;;;478734;248;27925;-69
2021/01/31 05:36:52;;;;;;;25.02;15.80;;;0.60;99.90;;;;;;478709;243;27952;-70
2021/01/31 05:38:54;;;;;;;25.00;15.73;;;0.70;99.90;;;;;;478788;248;27509;-68
2021/01/31 05:40:55;;;;;;;24.40;16.08;;;0.70;99.90;;;;;;478771;248;27561;-69
2021/01/31 05:42:56;;;;;;;28.08;16.98;;;0.70;99.90;;;;;;478806;244;27553;-69
2021/01/31 05:44:57;;;;;;;25.35;16.33;;;0.70;99.90;;;;;;478803;248;27589;-69
2021/01/31 05:46:59;;;;;;;27.52;16.77;;;0.70;99.90;;;;;;478859;243;27437;-70
2021/01/31 05:49:00;;;;;;;28.50;17.98;;;0.70;99.90;;;;;;478812;244;28045;-70
2021/01/31 05:51:01;;;;;;;25.90;16.45;;;0.80;99.90;;;;;;478736;248;28059;-69
2021/01/31 05:53:02;;;;;;;25.98;17.65;;;0.80;99.90;;;;;;478752;243;27461;-68
2021/01/31 05:55:04;;;;;;;25.90;17.85;;;0.80;99.90;;;;;;478716;248;27490;-68
2021/01/31 05:57:05;;;;;;;28.83;18.73;;;0.80;99.90;;;;;;478765;248;27457;-71
2021/01/31 05:59:06;;;;;;;27.85;17.02;;;0.70;99.90;;;;;;478757;248;27470;-70
2021/01/31 06:01:07;;;;;;;28.17;18.40;;;0.80;99.90;;;;;;478694;248;27454;-69
2021/01/31 06:03:09;;;;;;;30.00;17.85;;;0.80;99.90;;;;;;478851;248;27454;-69
2021/01/31 06:05:10;;;;;;;27.77;17.45;;;0.70;99.90;;;;;;478868;248;28668;-69
2021/01/31 06:07:11;;;;;;;33.28;19.02;;;0.70;99.90;;;;;;478886;243;27941;-71
2021/01/31 06:09:13;;;;;;;29.92;19.02;;;0.70;99.90;;;;;;478813;248;27465;-69
2021/01/31 06:11:14;;;;;;;28.17;18.15;;;0.70;99.90;;;;;;478809;248;27454;-68
2021/01/31 06:13:15;;;;;;;33.63;19.12;;;0.70;99.90;;;;;;478873;248;27548;-68
2021/01/31 06:15:16;;;;;;;27.05;18.37;;;0.70;99.90;;;;;;478814;248;27803;-70
2021/01/31 06:17:18;;;;;;;35.97;19.23;;;0.70;99.90;;;;;;478766;248;27513;-70
2021/01/31 06:19:19;;;;;;;29.63;18.48;;;0.70;99.90;;;;;;478758;248;27498;-68
2021/01/31 06:21:20;;;;;;;28.98;18.35;;;0.70;99.90;;;;;;478696;248;28037;-70
2021/01/31 06:23:21;;;;;;;33.30;18.05;;;0.70;99.90;;;;;;478767;248;27952;-68
2021/01/31 06:25:23;;;;;;;32.55;18.73;;;0.70;99.90;;;;;;478856;248;27563;-68
2021/01/31 06:27:24;;;;;;;31.73;19.58;;;0.70;99.90;;;;;;478835;248;27513;-69
2021/01/31 06:29:25;;;;;;;32.55;18.92;;;0.70;99.90;;;;;;478827;248;27460;-69
2021/01/31 06:31:26;;;;;;;33.00;19.30;;;0.70;99.90;;;;;;478878;248;27561;-70
2021/01/31 06:33:28;;;;;;;33.97;20.20;;;0.60;99.90;;;;;;478927;248;27472;-68
2021/01/31 06:35:29;;;;;;;29.83;18.15;;;0.60;99.90;;;;;;479028;243;27943;-69
2021/01/31 06:37:30;;;;;;;32.15;19.92;;;0.60;99.90;;;;;;478970;243;28160;-68
2021/01/31 06:39:32;;;;;;;35.33;20.73;;;0.60;99.90;;;;;;478910;244;27946;-69
2021/01/31 06:41:33;;;;;;;41.63;21.77;;;0.60;99.90;;;;;;478941;248;27446;-71
2021/01/31 06:43:34;;;;;;;31.40;19.60;;;0.60;99.90;;;;;;478957;248;27494;-69
2021/01/31 06:45:35;;;;;;;32.35;19.25;;;0.60;99.90;;;;;;478866;248;27486;-68
2021/01/31 06:47:36;;;;;;;34.55;20.10;;;0.60;99.90;;;;;;478810;244;27457;-68
2021/01/31 06:49:38;;;;;;;34.55;20.67;;;0.50;99.90;;;;;;478751;248;27481;-69
2021/01/31 06:51:39;;;;;;;32.97;19.73;;;0.50;99.90;;;;;;478721;248;27949;-69
2021/01/31 06:53:40;;;;;;;34.97;20.15;;;0.50;99.90;;;;;;478781;248;27887;-68
2021/01/31 06:55:41;;;;;;;38.85;20.10;;;0.50;99.90;;;;;;479711;243;27458;-69
2021/01/31 06:57:43;;;;;;;41.45;21.20;;;0.50;99.90;;;;;;478787;248;27474;-70
2021/01/31 06:59:44;;;;;;;36.92;19.50;;;0.50;99.90;;;;;;478796;248;27550;-69
2021/01/31 07:01:45;;;;;;;35.28;20.20;;;0.50;99.90;;;;;;478746;248;27795;-71
2021/01/31 07:03:46;;;;;;;32.90;19.42;;;0.50;99.90;;;;;;478905;248;27518;-69
2021/01/31 07:05:48;;;;;;;35.72;19.55;;;0.60;99.90;;;;;;478856;248;27933;-69
2021/01/31 07:07:49;;;;;;;32.65;19.87;;;0.40;99.90;;;;;;478835;248;28029;-69
2021/01/31 07:09:50;;;;;;;37.42;20.45;;;0.40;99.90;;;;;;478840;248;27538;-69
2021/01/31 07:11:51;;;;;;;37.17;20.12;;;0.50;99.90;;;;;;478590;248;27533;-69
2021/01/31 07:13:53;;;;;;;36.97;19.83;;;0.50;99.90;;;;;;478777;248;27442;-68
2021/01/31 07:15:54;;;;;;;35.55;21.15;;;0.50;99.90;;;;;;478740;248;27449;-69
2021/01/31 07:17:55;;;;;;;37.20;19.50;;;0.60;99.90;;;;;;478745;248;27453;-70
2021/01/31 07:19:56;;;;;;;41.42;22.98;;;0.60;99.90;;;;;;478847;243;27460;-68
2021/01/31 07:21:58;;;;;;;37.00;21.08;;;0.50;99.90;;;;;;478888;243;28733;-69
2021/01/31 07:23:59;;;;;;;35.53;21.20;;;0.50;99.90;;;;;;478758;248;28044;-71
2021/01/31 07:26:00;;;;;;;36.28;20.70;;;0.50;99.90;;;;;;478754;248;27557;-69
2021/01/31 07:28:02;;;;;;;34.22;20.10;;;0.50;99.90;;;;;;478723;248;27466;-68
2021/01/31 07:30:03;;;;;;;32.30;20.05;;;0.40;99.90;;;;;;478690;248;27461;-69
2021/01/31 07:32:04;;;;;;;36.83;19.37;;;0.50;99.90;;;;;;478719;244;27529;-68
2021/01/31 07:34:05;;;;;;;35.22;21.02;;;0.50;99.90;;;;;;478782;248;27492;-69
2021/01/31 07:36:07;;;;;;;36.75;19.42;;;0.60;99.90;;;;;;478723;244;27464;-72
2021/01/31 07:38:08;;;;;;;40.53;21.67;;;0.60;99.90;;;;;;478676;248;27954;-70
2021/01/31 07:40:10;;;;;;;33.80;19.20;;;0.70;99.90;;;;;;478694;243;27994;-69
2021/01/31 07:42:10;;;;;;;29.42;18.23;;;0.60;99.90;;;;;;478773;248;27502;-69
2021/01/31 07:44:12;;;;;;;35.53;19.85;;;0.60;99.90;;;;;;478771;248;27454;-70
2021/01/31 07:46:13;;;;;;;33.33;20.00;;;0.50;99.90;;;;;;478693;248;27824;-71
2021/01/31 07:48:14;;;;;;;31.70;19.90;;;0.60;99.90;;;;;;478787;248;27846;-69
2021/01/31 07:50:15;;;;;;;34.10;19.60;;;0.60;99.90;;;;;;478797;248;27773;-71
2021/01/31 07:52:17;;;;;;;34.42;19.48;;;0.70;99.90;;;;;;478829;248;27938;-69
2021/01/31 07:54:18;;;;;;;36.70;21.92;;;0.70;99.90;;;;;;478851;248;28076;-69
2021/01/31 07:56:19;;;;;;;29.15;18.02;;;0.80;99.90;;;;;;478848;248;27588;-70
2021/01/31 07:58:20;;;;;;;29.27;19.45;;;0.80;99.90;;;;;;478892;248;27510;-69
2021/01/31 08:00:22;;;;;;;31.45;18.65;;;0.70;99.90;;;;;;478837;248;27564;-70
2021/01/31 08:02:23;;;;;;;34.35;20.00;;;0.60;99.90;;;;;;478865;248;27414;-69
2021/01/31 08:04:24;;;;;;;34.45;19.37;;;0.60;99.90;;;;;;478901;248;27458;-69
2021/01/31 08:06:25;;;;;;;33.20;19.10;;;0.60;99.90;;;;;;478897;248;27790;-71
2021/01/31 08:08:27;;;;;;;33.80;20.40;;;0.50;99.90;;;;;;478732;248;27956;-68
2021/01/31 08:10:28;;;;;;;34.97;20.33;;;0.60;99.90;;;;;;478753;248;28398;-67
2021/01/31 08:12:29;;;;;;;38.45;20.02;;;0.60;99.90;;;;;;478959;248;27426;-67
2021/01/31 08:14:30;;;;;;;32.58;18.80;;;0.60;99.90;;;;;;478919;248;27460;-68
2021/01/31 08:16:32;;;;;;;33.65;19.90;;;0.70;99.90;;;;;;478945;248;27449;-71
2021/01/31 08:18:33;;;;;;;32.33;19.73;;;0.60;99.90;;;;;;478935;248;27624;-69
2021/01/31 08:20:34;;;;;;;37.95;20.48;;;0.70;99.90;;;;;;478815;248;27462;-70
2021/01/31 08:22:35;;;;;;;32.92;18.80;;;0.60;99.90;;;;;;478875;248;27457;-68
2021/01/31 08:24:37;;;;;;;36.95;18.77;;;0.50;99.90;;;;;;478856;248;28021;-69
2021/01/31 08:26:38;;;;;;;33.50;20.30;;;0.50;99.90;;;;;;478853;248;28812;-70
2021/01/31 08:28:39;;;;;;;35.22;20.33;;;0.60;99.90;;;;;;478870;248;27513;-66
2021/01/31 08:30:41;;;;;;;36.65;21.42;;;0.50;99.90;;;;;;478830;248;27564;-69
2021/01/31 08:32:42;;;;;;;36.80;21.45;;;0.40;99.90;;;;;;478876;248;27461;-67
2021/01/31 08:34:43;;;;;;;37.70;21.83;;;0.40;99.90;;;;;;478849;248;27532;-67
2021/01/31 08:36:44;;;;;;;35.30;20.12;;;0.60;99.90;;;;;;478829;248;27518;-68
2021/01/31 08:38:47;;;;;;;38.90;21.30;;;0.60;99.90;;;;;;478838;248;27464;-68
2021/01/31 08:40:47;;;;;;;37.20;21.50;;;0.60;99.90;;;;;;478738;248;27961;-71
2021/01/31 08:42:48;;;;;;;37.20;22.13;;;0.60;99.90;;;;;;478515;248;27914;-71
2021/01/31 08:44:49;;;;;;;32.97;20.00;;;0.70;99.90;;;;;;470747;252;27973;-69
2021/01/31 08:46:51;;;;;;;33.35;20.37;;;0.80;99.90;;;;;;484591;244;27471;-71
2021/01/31 08:48:52;;;;;;;32.08;20.45;;;0.80;99.90;;;;;;475581;249;27527;-69
2021/01/31 08:50:53;;;;;;;30.65;20.48;;;0.90;99.90;;;;;;469976;253;27586;-70
2021/01/31 08:52:54;;;;;;;35.10;20.80;;;0.90;99.90;;;;;;471841;248;27574;-69
2021/01/31 08:54:56;;;;;;;37.08;22.52;;;0.90;99.90;;;;;;478748;247;27405;-69
2021/01/31 08:56:57;;;;;;;34.75;19.20;;;0.90;99.90;;;;;;478772;247;27922;-69
2021/01/31 08:58:58;;;;;;;33.40;20.52;;;1.00;99.90;;;;;;476357;248;28052;-70
2021/01/31 09:00:59;;;;;;;32.45;20.92;;;1.10;99.90;;;;;;478681;247;27515;-71
2021/01/31 09:03:01;;;;;;;30.77;19.87;;;1.10;99.90;;;;;;478791;247;27532;-69
2021/01/31 09:05:02;;;;;;;33.92;20.37;;;1.00;99.90;;;;;;478737;247;27448;-69
2021/01/31 09:07:03;;;;;;;29.33;19.83;;;1.10;99.90;;;;;;478766;247;27426;-69
2021/01/31 09:09:05;;;;;;;30.90;19.50;;;1.10;99.90;;;;;;478785;247;27448;-70
2021/01/31 09:11:06;;;;;;;32.72;19.98;;;1.20;99.90;;;;;;478736;248;27431;-70
2021/01/31 09:13:07;;;;;;;31.15;19.27;;;1.20;99.90;;;;;;478802;246;28044;-69
2021/01/31 09:15:08;;;;;;;31.77;18.05;;;1.30;99.90;;;;;;478788;247;28394;-70
2021/01/31 09:17:09;;;;;;;31.00;18.30;;;1.20;99.90;;;;;;478839;247;27387;-69
2021/01/31 09:19:11;;;;;;;33.00;19.00;;;1.20;99.90;;;;;;478826;247;27440;-70
2021/01/31 09:21:12;;;;;;;30.73;18.20;;;1.30;99.90;;;;;;478753;247;27441;-68
2021/01/31 09:23:13;;;;;;;29.98;18.50;;;1.30;99.90;;;;;;478752;247;27421;-69
2021/01/31 09:25:15;;;;;;;33.67;19.40;;;1.30;99.90;;;;;;478841;247;27440;-70
2021/01/31 09:27:16;;;;;;;33.00;19.95;;;1.10;99.90;;;;;;478904;247;27413;-72
2021/01/31 09:29:17;;;;;;;34.00;18.45;;;1.20;99.90;;;;;;478928;248;27897;-70
2021/01/31 09:31:18;;;;;;;26.58;17.83;;;1.20;99.90;;;;;;478807;247;27936;-70
2021/01/31 09:33:20;;;;;;;30.77;19.58;;;1.10;99.90;;;;;;478892;247;27418;-68
2021/01/31 09:35:21;;;;;;;31.50;17.70;;;1.20;99.90;;;;;;478888;247;27457;-70
2021/01/31 09:37:22;;;;;;;32.63;19.02;;;1.10;99.90;;;;;;478817;247;27515;-69
2021/01/31 09:39:23;;;;;;;30.92;18.45;;;1.20;99.90;;;;;;478831;247;27421;-69
2021/01/31 09:41:25;;;;;;;28.35;18.90;;;1.40;99.90;;;;;;478771;247;27418;-68
2021/01/31 09:43:26;;;;;;;32.70;20.67;;;1.40;99.90;;;;;;478760;247;27901;-68
2021/01/31 09:45:27;;;;;;;27.83;18.45;;;1.40;99.90;;;;;;478836;247;27905;-71
2021/01/31 09:47:28;;;;;;;33.00;18.42;;;1.30;99.90;;;;;;478801;247;27480;-69
2021/01/31 09:49:30;;;;;;;32.50;19.12;;;1.40;99.90;;;;;;478759;248;27440;-68
2021/01/31 09:51:31;;;;;;;29.33;18.73;;;1.40;99.90;;;;;;478724;247;27444;-69
2021/01/31 09:53:32;;;;;;;32.28;19.35;;;1.30;99.90;;;;;;478645;247;27498;-68
2021/01/31 09:55:33;;;;;;;33.17;19.23;;;1.30;99.90;;;;;;478687;247;27450;-69
2021/01/31 09:57:35;;;;;;;29.27;18.10;;;1.30;99.90;;;;;;478726;248;27426;-69
2021/01/31 09:59:36;;;;;;;31.30;17.75;;;1.30;99.90;;;;;;478455;247;27889;-71
2021/01/31 10:01:37;;;;;;;27.65;17.70;;;1.40;99.90;;;;;;478585;247;27929;-69
2021/01/31 10:03:38;;;;;;;29.98;18.20;;;1.40;99.90;;;;;;478562;247;27441;-69
2021/01/31 10:05:40;;;;;;;29.40;18.33;;;1.50;99.90;;;;;;478753;247;27444;-68
2021/01/31 10:07:41;;;;;;;29.63;18.62;;;1.60;99.90;;;;;;478779;247;27516;-70
2021/01/31 10:09:42;;;;;;;29.33;18.45;;;1.60;99.90;;;;;;478776;247;27830;-69
2021/01/31 10:11:45;;;;;;;35.28;20.50;;;1.50;99.90;;;;;;478542;248;27451;-69
2021/01/31 10:13:45;;;;;;;31.12;18.87;;;1.50;99.90;;;;;;478628;247;27440;-70
2021/01/31 10:15:46;;;;;;;29.90;17.67;;;1.50;99.90;;;;;;478748;247;27925;-68
2021/01/31 10:17:47;;;;;;;31.02;18.35;;;1.50;99.90;;;;;;478798;247;27995;-70
2021/01/31 10:19:48;;;;;;;32.05;18.55;;;1.20;99.90;;;;;;478825;247;27402;-69
2021/01/31 10:21:50;;;;;;;28.62;17.98;;;1.30;99.90;;;;;;478719;248;27514;-69
2021/01/31 10:23:51;;;;;;;29.95;18.67;;;1.20;99.90;;;;;;478774;247;27421;-69